sensor_id;sensor_type;location;lat;lon;timestamp;temperature;humidity
38938;DHT22;24727;51.974;20.868;2023-07-31T00:00:51;17.70;1.00
38938;DHT22;24727;51.974;20.868;2023-07-31T00:03:17;17.70;1.00
38938;DHT22;24727;51.974;20.868;2023-07-31T00:05:43;17.60;1.00
38938;DHT22;24727;51.974;20.868;2023-07-31T00:08:10;17.50;1.00
38938;DHT22;24727;51.974;20.868;2023-07-31T00:10:36;17.40;1.00
38938;DHT22;24727;51.974;20.868;2023-07-31T00:13:01;17.40;1.00
38938;DHT22;24727;51.974;20.868;2023-07-31T00:15:27;17.50;1.00
38938;DHT22;24727;51.974;20.868;2023-07-31T00:17:56;17.60;1.00
38938;DHT22;24727;51.974;20.868;2023-07-31T00:20:22;17.70;1.00
38938;DHT22;24727;51.974;20.868;2023-07-31T00:22:50;17.70;1.00
38938;DHT22;24727;51.974;20.868;2023-07-31T00:25:16;17.80;1.00
38938;DHT22;24727;51.974;20.868;2023-07-31T00:27:42;17.90;1.00
38938;DHT22;24727;51.974;20.868;2023-07-31T00:30:10;18.00;1.00
38938;DHT22;24727;51.974;20.868;2023-07-31T00:32:37;18.10;1.00
38938;DHT22;24727;51.974;20.868;2023-07-31T00:35:03;18.10;1.00
38938;DHT22;24727;51.974;20.868;2023-07-31T00:37:29;18.20;1.00
38938;DHT22;24727;51.974;20.868;2023-07-31T00:39:56;18.30;1.00
38938;DHT22;24727;51.974;20.868;2023-07-31T00:42:22;18.30;1.00
38938;DHT22;24727;51.974;20.868;2023-07-31T00:44:48;18.30;1.00
38938;DHT22;24727;51.974;20.868;2023-07-31T00:47:14;18.20;1.00
38938;DHT22;24727;51.974;20.868;2023-07-31T00:49:40;18.20;1.00
38938;DHT22;24727;51.974;20.868;2023-07-31T00:52:08;18.10;1.00
38938;DHT22;24727;51.974;20.868;2023-07-31T00:54:34;18.10;1.00
38938;DHT22;24727;51.974;20.868;2023-07-31T00:57:00;18.10;1.00
38938;DHT22;24727;51.974;20.868;2023-07-31T00:59:27;18.10;1.00
38938;DHT22;24727;51.974;20.868;2023-07-31T01:01:53;18.10;1.00
38938;DHT22;24727;51.974;20.868;2023-07-31T01:04:21;18.20;1.00
38938;DHT22;24727;51.974;20.868;2023-07-31T01:07:22;18.10;1.00
38938;DHT22;24727;51.974;20.868;2023-07-31T01:09:57;18.20;1.00
38938;DHT22;24727;51.974;20.868;2023-07-31T01:12:29;18.10;1.00
38938;DHT22;24727;51.974;20.868;2023-07-31T01:15:04;18.10;1.00
38938;DHT22;24727;51.974;20.868;2023-07-31T01:17:31;18.10;1.00
38938;DHT22;24727;51.974;20.868;2023-07-31T01:20:02;18.00;1.00
38938;DHT22;24727;51.974;20.868;2023-07-31T01:26:21;18.00;1.00
38938;DHT22;24727;51.974;20.868;2023-07-31T01:28:20;17.90;1.00
38938;DHT22;24727;51.974;20.868;2023-07-31T01:30:52;17.90;1.00
38938;DHT22;24727;51.974;20.868;2023-07-31T01:33:21;17.90;1.00
38938;DHT22;24727;51.974;20.868;2023-07-31T01:35:48;17.80;1.00
38938;DHT22;24727;51.974;20.868;2023-07-31T01:38:15;17.70;1.00
38938;DHT22;24727;51.974;20.868;2023-07-31T01:40:44;17.70;1.00
38938;DHT22;24727;51.974;20.868;2023-07-31T01:43:10;17.70;1.00
38938;DHT22;24727;51.974;20.868;2023-07-31T01:45:36;17.60;1.00
38938;DHT22;24727;51.974;20.868;2023-07-31T01:48:04;17.50;1.00
38938;DHT22;24727;51.974;20.868;2023-07-31T01:50:30;17.50;1.00
38938;DHT22;24727;51.974;20.868;2023-07-31T01:52:56;17.40;1.00
38938;DHT22;24727;51.974;20.868;2023-07-31T01:55:22;17.40;1.00
38938;DHT22;24727;51.974;20.868;2023-07-31T01:57:48;17.30;1.00
38938;DHT22;24727;51.974;20.868;2023-07-31T02:00:14;17.20;1.00
38938;DHT22;24727;51.974;20.868;2023-07-31T02:02:40;17.10;1.00
38938;DHT22;24727;51.974;20.868;2023-07-31T02:05:07;17.10;1.00
38938;DHT22;24727;51.974;20.868;2023-07-31T02:07:33;17.10;1.00
38938;DHT22;24727;51.974;20.868;2023-07-31T02:09:59;17.10;1.00
38938;DHT22;24727;51.974;20.868;2023-07-31T02:12:25;17.10;1.00
38938;DHT22;24727;51.974;20.868;2023-07-31T02:14:51;17.00;1.00
38938;DHT22;24727;51.974;20.868;2023-07-31T02:17:17;16.80;1.00
38938;DHT22;24727;51.974;20.868;2023-07-31T02:19:43;16.80;1.00
38938;DHT22;24727;51.974;20.868;2023-07-31T02:22:10;16.60;1.00
38938;DHT22;24727;51.974;20.868;2023-07-31T02:24:35;16.60;1.00
38938;DHT22;24727;51.974;20.868;2023-07-31T02:27:01;16.60;1.00
38938;DHT22;24727;51.974;20.868;2023-07-31T02:29:29;16.70;1.00
38938;DHT22;24727;51.974;20.868;2023-07-31T02:31:55;16.80;1.00
38938;DHT22;24727;51.974;20.868;2023-07-31T02:34:21;16.80;1.00
38938;DHT22;24727;51.974;20.868;2023-07-31T02:36:47;16.80;1.00
38938;DHT22;24727;51.974;20.868;2023-07-31T02:39:14;16.80;1.00
38938;DHT22;24727;51.974;20.868;2023-07-31T02:41:40;16.80;1.00
38938;DHT22;24727;51.974;20.868;2023-07-31T02:44:06;16.90;1.00
38938;DHT22;24727;51.974;20.868;2023-07-31T02:46:34;17.00;1.00
38938;DHT22;24727;51.974;20.868;2023-07-31T02:49:01;17.00;1.00
38938;DHT22;24727;51.974;20.868;2023-07-31T02:51:27;17.00;1.00
38938;DHT22;24727;51.974;20.868;2023-07-31T02:53:53;17.00;1.00
38938;DHT22;24727;51.974;20.868;2023-07-31T02:56:19;17.00;1.00
38938;DHT22;24727;51.974;20.868;2023-07-31T02:58:45;17.00;1.00
38938;DHT22;24727;51.974;20.868;2023-07-31T03:01:12;17.10;1.00
38938;DHT22;24727;51.974;20.868;2023-07-31T03:03:38;17.10;1.00
38938;DHT22;24727;51.974;20.868;2023-07-31T03:06:04;17.10;1.00
38938;DHT22;24727;51.974;20.868;2023-07-31T03:08:30;17.10;1.00
38938;DHT22;24727;51.974;20.868;2023-07-31T03:10:57;17.10;1.00
38938;DHT22;24727;51.974;20.868;2023-07-31T03:13:23;17.10;1.00
38938;DHT22;24727;51.974;20.868;2023-07-31T03:15:50;17.10;1.00
38938;DHT22;24727;51.974;20.868;2023-07-31T03:18:18;17.10;1.00
38938;DHT22;24727;51.974;20.868;2023-07-31T03:20:47;17.10;1.00
38938;DHT22;24727;51.974;20.868;2023-07-31T03:23:14;17.10;1.00
38938;DHT22;24727;51.974;20.868;2023-07-31T03:25:54;17.10;1.00
38938;DHT22;24727;51.974;20.868;2023-07-31T03:28:21;17.10;1.00
38938;DHT22;24727;51.974;20.868;2023-07-31T03:30:47;17.20;1.00
38938;DHT22;24727;51.974;20.868;2023-07-31T03:33:12;17.20;1.00
38938;DHT22;24727;51.974;20.868;2023-07-31T03:35:39;17.20;1.00
38938;DHT22;24727;51.974;20.868;2023-07-31T03:38:05;17.20;1.00
38938;DHT22;24727;51.974;20.868;2023-07-31T03:40:31;17.20;1.00
38938;DHT22;24727;51.974;20.868;2023-07-31T03:42:57;17.10;1.00
38938;DHT22;24727;51.974;20.868;2023-07-31T03:45:23;17.10;1.00
38938;DHT22;24727;51.974;20.868;2023-07-31T03:47:51;17.10;1.00
38938;DHT22;24727;51.974;20.868;2023-07-31T03:50:17;17.20;1.00
38938;DHT22;24727;51.974;20.868;2023-07-31T03:52:43;17.20;1.00
38938;DHT22;24727;51.974;20.868;2023-07-31T03:55:09;17.20;1.00
38938;DHT22;24727;51.974;20.868;2023-07-31T03:57:36;17.10;1.00
38938;DHT22;24727;51.974;20.868;2023-07-31T04:00:03;17.20;1.00
38938;DHT22;24727;51.974;20.868;2023-07-31T04:02:29;17.10;1.00
38938;DHT22;24727;51.974;20.868;2023-07-31T04:04:57;17.10;1.00
38938;DHT22;24727;51.974;20.868;2023-07-31T04:07:29;17.10;1.00
38938;DHT22;24727;51.974;20.868;2023-07-31T04:09:56;17.10;1.00
38938;DHT22;24727;51.974;20.868;2023-07-31T04:12:23;17.10;1.00
38938;DHT22;24727;51.974;20.868;2023-07-31T04:14:50;17.10;1.00
38938;DHT22;24727;51.974;20.868;2023-07-31T04:17:17;17.10;1.00
38938;DHT22;24727;51.974;20.868;2023-07-31T04:19:43;17.10;1.00
38938;DHT22;24727;51.974;20.868;2023-07-31T04:22:09;17.10;1.00
38938;DHT22;24727;51.974;20.868;2023-07-31T04:24:37;17.10;1.00
38938;DHT22;24727;51.974;20.868;2023-07-31T04:27:10;17.10;1.00
38938;DHT22;24727;51.974;20.868;2023-07-31T04:29:37;17.10;1.00
38938;DHT22;24727;51.974;20.868;2023-07-31T04:32:06;17.10;1.00
38938;DHT22;24727;51.974;20.868;2023-07-31T04:34:31;17.10;1.00
38938;DHT22;24727;51.974;20.868;2023-07-31T04:36:57;17.10;1.00
38938;DHT22;24727;51.974;20.868;2023-07-31T04:39:23;17.00;1.00
38938;DHT22;24727;51.974;20.868;2023-07-31T04:41:49;17.10;1.00
38938;DHT22;24727;51.974;20.868;2023-07-31T04:44:15;17.10;1.00
38938;DHT22;24727;51.974;20.868;2023-07-31T04:46:41;17.10;1.00
38938;DHT22;24727;51.974;20.868;2023-07-31T04:49:07;17.10;1.00
38938;DHT22;24727;51.974;20.868;2023-07-31T04:51:33;17.10;1.00
38938;DHT22;24727;51.974;20.868;2023-07-31T04:53:58;17.10;1.00
38938;DHT22;24727;51.974;20.868;2023-07-31T04:56:24;17.10;1.00
38938;DHT22;24727;51.974;20.868;2023-07-31T04:58:50;17.10;1.00
38938;DHT22;24727;51.974;20.868;2023-07-31T05:01:16;17.10;1.00
38938;DHT22;24727;51.974;20.868;2023-07-31T05:03:42;17.10;1.00
38938;DHT22;24727;51.974;20.868;2023-07-31T05:06:08;17.10;1.00
38938;DHT22;24727;51.974;20.868;2023-07-31T05:08:34;17.10;1.00
38938;DHT22;24727;51.974;20.868;2023-07-31T05:11:00;17.20;1.00
38938;DHT22;24727;51.974;20.868;2023-07-31T05:13:26;17.20;1.00
38938;DHT22;24727;51.974;20.868;2023-07-31T05:15:52;17.30;1.00
38938;DHT22;24727;51.974;20.868;2023-07-31T05:18:18;17.30;1.00
38938;DHT22;24727;51.974;20.868;2023-07-31T05:20:45;17.40;1.00
38938;DHT22;24727;51.974;20.868;2023-07-31T05:23:10;17.40;1.00
38938;DHT22;24727;51.974;20.868;2023-07-31T05:25:36;17.40;1.00
38938;DHT22;24727;51.974;20.868;2023-07-31T05:28:03;17.40;1.00
38938;DHT22;24727;51.974;20.868;2023-07-31T05:30:30;17.30;1.00
38938;DHT22;24727;51.974;20.868;2023-07-31T05:32:58;17.30;1.00
38938;DHT22;24727;51.974;20.868;2023-07-31T05:35:24;17.30;1.00
38938;DHT22;24727;51.974;20.868;2023-07-31T05:37:50;17.30;1.00
38938;DHT22;24727;51.974;20.868;2023-07-31T05:40:16;17.30;1.00
38938;DHT22;24727;51.974;20.868;2023-07-31T05:42:44;17.30;1.00
38938;DHT22;24727;51.974;20.868;2023-07-31T05:45:11;17.20;1.00
38938;DHT22;24727;51.974;20.868;2023-07-31T05:47:37;17.20;1.00
38938;DHT22;24727;51.974;20.868;2023-07-31T05:50:04;17.20;1.00
38938;DHT22;24727;51.974;20.868;2023-07-31T05:52:31;17.20;1.00
38938;DHT22;24727;51.974;20.868;2023-07-31T05:54:57;17.20;1.00
38938;DHT22;24727;51.974;20.868;2023-07-31T05:57:23;17.20;1.00
38938;DHT22;24727;51.974;20.868;2023-07-31T05:59:49;17.20;1.00
38938;DHT22;24727;51.974;20.868;2023-07-31T06:02:21;17.20;1.00
38938;DHT22;24727;51.974;20.868;2023-07-31T06:04:47;17.20;1.00
38938;DHT22;24727;51.974;20.868;2023-07-31T06:07:13;17.20;1.00
38938;DHT22;24727;51.974;20.868;2023-07-31T06:09:40;17.20;1.00
38938;DHT22;24727;51.974;20.868;2023-07-31T06:12:08;17.10;1.00
38938;DHT22;24727;51.974;20.868;2023-07-31T06:14:36;17.10;1.00
38938;DHT22;24727;51.974;20.868;2023-07-31T06:17:01;17.00;1.00
38938;DHT22;24727;51.974;20.868;2023-07-31T06:19:27;17.00;1.00
38938;DHT22;24727;51.974;20.868;2023-07-31T06:21:54;17.00;1.00
38938;DHT22;24727;51.974;20.868;2023-07-31T06:24:21;17.00;1.00
38938;DHT22;24727;51.974;20.868;2023-07-31T06:26:48;17.10;1.00
38938;DHT22;24727;51.974;20.868;2023-07-31T06:29:14;17.10;1.00
38938;DHT22;24727;51.974;20.868;2023-07-31T06:31:41;17.10;1.00
38938;DHT22;24727;51.974;20.868;2023-07-31T06:34:07;17.10;1.00
38938;DHT22;24727;51.974;20.868;2023-07-31T06:36:33;17.20;1.00
38938;DHT22;24727;51.974;20.868;2023-07-31T06:38:59;17.30;1.00
38938;DHT22;24727;51.974;20.868;2023-07-31T06:41:25;17.40;1.00
38938;DHT22;24727;51.974;20.868;2023-07-31T06:43:51;17.40;1.00
38938;DHT22;24727;51.974;20.868;2023-07-31T06:46:17;17.40;1.00
38938;DHT22;24727;51.974;20.868;2023-07-31T06:48:43;17.40;1.00
38938;DHT22;24727;51.974;20.868;2023-07-31T06:51:09;17.40;1.00
38938;DHT22;24727;51.974;20.868;2023-07-31T06:53:35;17.50;1.00
38938;DHT22;24727;51.974;20.868;2023-07-31T06:56:01;17.60;1.00
38938;DHT22;24727;51.974;20.868;2023-07-31T06:58:27;17.80;1.00
38938;DHT22;24727;51.974;20.868;2023-07-31T07:00:54;17.90;1.00
38938;DHT22;24727;51.974;20.868;2023-07-31T07:03:19;18.10;1.00
38938;DHT22;24727;51.974;20.868;2023-07-31T07:05:46;18.20;1.00
38938;DHT22;24727;51.974;20.868;2023-07-31T07:08:11;18.10;1.00
38938;DHT22;24727;51.974;20.868;2023-07-31T07:10:37;18.20;1.00
38938;DHT22;24727;51.974;20.868;2023-07-31T07:13:03;18.20;1.00
38938;DHT22;24727;51.974;20.868;2023-07-31T07:15:29;18.10;1.00
38938;DHT22;24727;51.974;20.868;2023-07-31T07:17:56;18.20;1.00
38938;DHT22;24727;51.974;20.868;2023-07-31T07:20:23;18.30;1.00
38938;DHT22;24727;51.974;20.868;2023-07-31T07:22:49;18.40;1.00
38938;DHT22;24727;51.974;20.868;2023-07-31T07:25:15;18.70;1.00
38938;DHT22;24727;51.974;20.868;2023-07-31T07:27:41;18.90;1.00
38938;DHT22;24727;51.974;20.868;2023-07-31T07:30:08;19.20;1.00
38938;DHT22;24727;51.974;20.868;2023-07-31T07:32:34;19.20;1.00
38938;DHT22;24727;51.974;20.868;2023-07-31T07:35:01;19.20;1.00
38938;DHT22;24727;51.974;20.868;2023-07-31T07:37:28;19.10;1.00
38938;DHT22;24727;51.974;20.868;2023-07-31T07:39:53;19.00;1.00
38938;DHT22;24727;51.974;20.868;2023-07-31T07:42:19;18.90;1.00
38938;DHT22;24727;51.974;20.868;2023-07-31T07:44:45;18.90;1.00
38938;DHT22;24727;51.974;20.868;2023-07-31T07:47:13;19.00;1.00
38938;DHT22;24727;51.974;20.868;2023-07-31T07:49:39;19.10;1.00
38938;DHT22;24727;51.974;20.868;2023-07-31T07:52:05;19.10;1.00
38938;DHT22;24727;51.974;20.868;2023-07-31T07:54:32;19.00;1.00
38938;DHT22;24727;51.974;20.868;2023-07-31T07:56:59;19.00;1.00
38938;DHT22;24727;51.974;20.868;2023-07-31T07:59:27;19.00;1.00
38938;DHT22;24727;51.974;20.868;2023-07-31T08:01:53;19.20;1.00
38938;DHT22;24727;51.974;20.868;2023-07-31T08:04:19;19.40;1.00
38938;DHT22;24727;51.974;20.868;2023-07-31T08:06:45;19.60;1.00
38938;DHT22;24727;51.974;20.868;2023-07-31T08:09:12;19.90;1.00
38938;DHT22;24727;51.974;20.868;2023-07-31T08:11:38;20.00;1.00
38938;DHT22;24727;51.974;20.868;2023-07-31T08:14:04;20.00;1.00
38938;DHT22;24727;51.974;20.868;2023-07-31T08:16:30;20.00;1.00
38938;DHT22;24727;51.974;20.868;2023-07-31T08:18:56;20.10;1.00
38938;DHT22;24727;51.974;20.868;2023-07-31T08:21:23;19.90;1.00
38938;DHT22;24727;51.974;20.868;2023-07-31T08:23:49;20.00;1.00
38938;DHT22;24727;51.974;20.868;2023-07-31T08:26:18;20.10;1.00
38938;DHT22;24727;51.974;20.868;2023-07-31T08:28:46;20.30;1.00
38938;DHT22;24727;51.974;20.868;2023-07-31T08:31:13;20.40;1.00
38938;DHT22;24727;51.974;20.868;2023-07-31T08:33:39;20.60;1.00
38938;DHT22;24727;51.974;20.868;2023-07-31T08:36:06;20.90;1.00
38938;DHT22;24727;51.974;20.868;2023-07-31T08:38:32;21.00;1.00
38938;DHT22;24727;51.974;20.868;2023-07-31T08:40:59;21.10;1.00
38938;DHT22;24727;51.974;20.868;2023-07-31T08:43:28;21.20;1.00
38938;DHT22;24727;51.974;20.868;2023-07-31T08:45:54;21.40;1.00
38938;DHT22;24727;51.974;20.868;2023-07-31T08:48:23;21.80;1.00
38938;DHT22;24727;51.974;20.868;2023-07-31T08:50:51;22.00;1.00
38938;DHT22;24727;51.974;20.868;2023-07-31T08:53:17;22.10;1.00
38938;DHT22;24727;51.974;20.868;2023-07-31T08:55:46;22.10;1.00
38938;DHT22;24727;51.974;20.868;2023-07-31T08:58:14;22.10;1.00
38938;DHT22;24727;51.974;20.868;2023-07-31T09:00:41;22.00;1.00
38938;DHT22;24727;51.974;20.868;2023-07-31T09:03:14;22.00;1.00
38938;DHT22;24727;51.974;20.868;2023-07-31T09:05:43;22.20;1.00
38938;DHT22;24727;51.974;20.868;2023-07-31T09:08:11;22.50;1.00
38938;DHT22;24727;51.974;20.868;2023-07-31T09:10:45;22.30;1.00
38938;DHT22;24727;51.974;20.868;2023-07-31T09:13:16;22.20;1.00
38938;DHT22;24727;51.974;20.868;2023-07-31T09:15:45;22.10;1.00
38938;DHT22;24727;51.974;20.868;2023-07-31T09:18:12;22.00;1.00
38938;DHT22;24727;51.974;20.868;2023-07-31T09:20:40;22.10;1.00
38938;DHT22;24727;51.974;20.868;2023-07-31T09:23:14;22.10;1.00
38938;DHT22;24727;51.974;20.868;2023-07-31T09:25:46;22.20;1.00
38938;DHT22;24727;51.974;20.868;2023-07-31T09:28:13;22.20;1.00
38938;DHT22;24727;51.974;20.868;2023-07-31T09:30:47;22.10;1.00
38938;DHT22;24727;51.974;20.868;2023-07-31T09:33:14;21.80;1.00
38938;DHT22;24727;51.974;20.868;2023-07-31T09:35:42;21.60;1.00
38938;DHT22;24727;51.974;20.868;2023-07-31T09:38:15;21.80;1.00
38938;DHT22;24727;51.974;20.868;2023-07-31T09:40:43;22.30;1.00
38938;DHT22;24727;51.974;20.868;2023-07-31T09:43:11;22.10;1.00
38938;DHT22;24727;51.974;20.868;2023-07-31T09:45:41;22.30;1.00
38938;DHT22;24727;51.974;20.868;2023-07-31T09:48:13;22.30;1.00
38938;DHT22;24727;51.974;20.868;2023-07-31T09:50:43;22.40;1.00
38938;DHT22;24727;51.974;20.868;2023-07-31T09:53:10;22.20;1.00
38938;DHT22;24727;51.974;20.868;2023-07-31T09:55:37;22.40;1.00
38938;DHT22;24727;51.974;20.868;2023-07-31T09:58:05;22.30;1.00
38938;DHT22;24727;51.974;20.868;2023-07-31T10:00:32;22.60;1.00
38938;DHT22;24727;51.974;20.868;2023-07-31T10:03:05;23.00;1.00
38938;DHT22;24727;51.974;20.868;2023-07-31T10:05:38;23.20;1.00
38938;DHT22;24727;51.974;20.868;2023-07-31T10:08:07;23.00;1.00
38938;DHT22;24727;51.974;20.868;2023-07-31T10:10:36;22.90;1.00
38938;DHT22;24727;51.974;20.868;2023-07-31T10:13:05;23.30;1.00
38938;DHT22;24727;51.974;20.868;2023-07-31T10:15:32;23.50;1.00
38938;DHT22;24727;51.974;20.868;2023-07-31T10:18:00;24.10;1.00
38938;DHT22;24727;51.974;20.868;2023-07-31T10:20:26;23.40;1.00
38938;DHT22;24727;51.974;20.868;2023-07-31T10:22:55;23.10;1.00
38938;DHT22;24727;51.974;20.868;2023-07-31T10:25:22;23.20;1.00
38938;DHT22;24727;51.974;20.868;2023-07-31T10:27:50;23.50;1.00
38938;DHT22;24727;51.974;20.868;2023-07-31T10:30:20;23.50;1.00
38938;DHT22;24727;51.974;20.868;2023-07-31T10:32:50;23.40;1.00
38938;DHT22;24727;51.974;20.868;2023-07-31T10:35:17;23.60;1.00
38938;DHT22;24727;51.974;20.868;2023-07-31T10:37:45;23.40;1.00
38938;DHT22;24727;51.974;20.868;2023-07-31T10:40:40;23.30;1.00
38938;DHT22;24727;51.974;20.868;2023-07-31T10:43:24;23.40;1.00
38938;DHT22;24727;51.974;20.868;2023-07-31T10:45:52;23.70;1.00
38938;DHT22;24727;51.974;20.868;2023-07-31T10:48:19;23.70;1.00
38938;DHT22;24727;51.974;20.868;2023-07-31T10:50:56;23.70;1.00
38938;DHT22;24727;51.974;20.868;2023-07-31T10:53:26;24.10;1.00
38938;DHT22;24727;51.974;20.868;2023-07-31T10:56:01;23.70;1.00
38938;DHT22;24727;51.974;20.868;2023-07-31T10:58:27;23.70;1.00
38938;DHT22;24727;51.974;20.868;2023-07-31T11:01:00;24.00;1.00
38938;DHT22;24727;51.974;20.868;2023-07-31T11:03:40;24.40;1.00
38938;DHT22;24727;51.974;20.868;2023-07-31T11:06:08;24.20;1.00
38938;DHT22;24727;51.974;20.868;2023-07-31T11:08:41;24.10;1.00
38938;DHT22;24727;51.974;20.868;2023-07-31T11:11:09;24.20;1.00
38938;DHT22;24727;51.974;20.868;2023-07-31T11:13:52;23.60;1.00
38938;DHT22;24727;51.974;20.868;2023-07-31T11:16:20;23.70;1.00
38938;DHT22;24727;51.974;20.868;2023-07-31T11:18:47;23.80;1.00
38938;DHT22;24727;51.974;20.868;2023-07-31T11:21:24;23.70;1.00
38938;DHT22;24727;51.974;20.868;2023-07-31T11:23:57;23.40;1.00
38938;DHT22;24727;51.974;20.868;2023-07-31T11:26:24;23.10;1.00
38938;DHT22;24727;51.974;20.868;2023-07-31T11:28:51;23.40;1.00
38938;DHT22;24727;51.974;20.868;2023-07-31T11:31:18;23.70;1.00
38938;DHT22;24727;51.974;20.868;2023-07-31T11:33:45;23.50;1.00
38938;DHT22;24727;51.974;20.868;2023-07-31T11:36:19;23.20;1.00
38938;DHT22;24727;51.974;20.868;2023-07-31T11:38:46;23.30;1.00
38938;DHT22;24727;51.974;20.868;2023-07-31T11:41:14;23.60;1.00
38938;DHT22;24727;51.974;20.868;2023-07-31T11:43:41;24.20;1.00
38938;DHT22;24727;51.974;20.868;2023-07-31T11:46:07;24.10;1.00
38938;DHT22;24727;51.974;20.868;2023-07-31T11:48:37;23.50;1.00
38938;DHT22;24727;51.974;20.868;2023-07-31T11:51:06;23.00;1.00
38938;DHT22;24727;51.974;20.868;2023-07-31T11:53:49;23.00;1.00
38938;DHT22;24727;51.974;20.868;2023-07-31T11:56:20;23.00;1.00
38938;DHT22;24727;51.974;20.868;2023-07-31T11:58:55;22.60;1.00
38938;DHT22;24727;51.974;20.868;2023-07-31T12:01:23;22.50;1.00
38938;DHT22;24727;51.974;20.868;2023-07-31T12:03:50;22.70;1.00
38938;DHT22;24727;51.974;20.868;2023-07-31T12:06:18;22.60;1.00
38938;DHT22;24727;51.974;20.868;2023-07-31T12:08:46;22.40;1.00
38938;DHT22;24727;51.974;20.868;2023-07-31T12:11:13;22.30;1.00
38938;DHT22;24727;51.974;20.868;2023-07-31T12:13:43;22.10;1.00
38938;DHT22;24727;51.974;20.868;2023-07-31T12:16:11;22.10;1.00
38938;DHT22;24727;51.974;20.868;2023-07-31T12:18:38;22.30;1.00
38938;DHT22;24727;51.974;20.868;2023-07-31T12:21:06;22.40;1.00
38938;DHT22;24727;51.974;20.868;2023-07-31T12:23:34;22.30;1.00
38938;DHT22;24727;51.974;20.868;2023-07-31T12:26:05;22.30;1.00
38938;DHT22;24727;51.974;20.868;2023-07-31T12:28:41;22.20;1.00
38938;DHT22;24727;51.974;20.868;2023-07-31T12:31:20;22.20;1.00
38938;DHT22;24727;51.974;20.868;2023-07-31T12:33:50;22.30;1.00
38938;DHT22;24727;51.974;20.868;2023-07-31T12:36:24;22.60;1.00
38938;DHT22;24727;51.974;20.868;2023-07-31T12:38:51;22.50;1.00
38938;DHT22;24727;51.974;20.868;2023-07-31T12:41:18;22.20;1.00
38938;DHT22;24727;51.974;20.868;2023-07-31T12:43:45;22.40;1.00
38938;DHT22;24727;51.974;20.868;2023-07-31T12:46:12;22.30;1.00
38938;DHT22;24727;51.974;20.868;2023-07-31T12:48:39;22.30;1.00
38938;DHT22;24727;51.974;20.868;2023-07-31T12:51:06;22.60;1.00
38938;DHT22;24727;51.974;20.868;2023-07-31T12:53:33;22.60;1.00
38938;DHT22;24727;51.974;20.868;2023-07-31T12:55:59;22.60;1.00
38938;DHT22;24727;51.974;20.868;2023-07-31T12:58:26;22.60;1.00
38938;DHT22;24727;51.974;20.868;2023-07-31T13:00:52;22.60;1.00
38938;DHT22;24727;51.974;20.868;2023-07-31T13:03:18;22.60;1.00
38938;DHT22;24727;51.974;20.868;2023-07-31T13:05:44;22.40;1.00
38938;DHT22;24727;51.974;20.868;2023-07-31T13:08:10;22.60;1.00
38938;DHT22;24727;51.974;20.868;2023-07-31T13:10:37;22.60;1.00
38938;DHT22;24727;51.974;20.868;2023-07-31T13:13:05;22.80;1.00
38938;DHT22;24727;51.974;20.868;2023-07-31T13:15:31;23.20;1.00
38938;DHT22;24727;51.974;20.868;2023-07-31T13:17:58;23.70;1.00
38938;DHT22;24727;51.974;20.868;2023-07-31T13:20:25;23.90;1.00
38938;DHT22;24727;51.974;20.868;2023-07-31T13:22:51;23.60;1.00
38938;DHT22;24727;51.974;20.868;2023-07-31T13:25:26;23.50;1.00
38938;DHT22;24727;51.974;20.868;2023-07-31T13:27:53;23.50;1.00
38938;DHT22;24727;51.974;20.868;2023-07-31T13:30:19;23.70;1.00
38938;DHT22;24727;51.974;20.868;2023-07-31T13:32:45;23.60;1.00
38938;DHT22;24727;51.974;20.868;2023-07-31T13:35:11;23.50;1.00
38938;DHT22;24727;51.974;20.868;2023-07-31T13:37:37;23.50;1.00
38938;DHT22;24727;51.974;20.868;2023-07-31T13:40:04;23.30;1.00
38938;DHT22;24727;51.974;20.868;2023-07-31T13:42:31;23.20;1.00
38938;DHT22;24727;51.974;20.868;2023-07-31T13:44:58;23.10;1.00
38938;DHT22;24727;51.974;20.868;2023-07-31T13:47:24;23.00;1.00
38938;DHT22;24727;51.974;20.868;2023-07-31T13:49:51;23.00;1.00
38938;DHT22;24727;51.974;20.868;2023-07-31T13:52:17;22.90;1.00
38938;DHT22;24727;51.974;20.868;2023-07-31T13:54:43;22.70;1.00
38938;DHT22;24727;51.974;20.868;2023-07-31T13:57:10;22.80;1.00
38938;DHT22;24727;51.974;20.868;2023-07-31T13:59:38;23.10;1.00
38938;DHT22;24727;51.974;20.868;2023-07-31T14:02:04;23.10;1.00
38938;DHT22;24727;51.974;20.868;2023-07-31T14:04:30;23.20;1.00
38938;DHT22;24727;51.974;20.868;2023-07-31T14:06:57;23.30;1.00
38938;DHT22;24727;51.974;20.868;2023-07-31T14:09:22;23.30;1.00
38938;DHT22;24727;51.974;20.868;2023-07-31T14:11:49;23.00;1.00
38938;DHT22;24727;51.974;20.868;2023-07-31T14:14:16;22.80;1.00
38938;DHT22;24727;51.974;20.868;2023-07-31T14:16:43;23.10;1.00
38938;DHT22;24727;51.974;20.868;2023-07-31T14:19:10;23.20;1.00
38938;DHT22;24727;51.974;20.868;2023-07-31T14:21:36;23.30;1.00
38938;DHT22;24727;51.974;20.868;2023-07-31T14:24:03;23.50;1.00
38938;DHT22;24727;51.974;20.868;2023-07-31T14:26:28;24.20;1.00
38938;DHT22;24727;51.974;20.868;2023-07-31T14:28:55;24.30;1.00
38938;DHT22;24727;51.974;20.868;2023-07-31T14:31:21;24.80;1.00
38938;DHT22;24727;51.974;20.868;2023-07-31T14:33:49;24.90;1.00
38938;DHT22;24727;51.974;20.868;2023-07-31T14:36:15;24.70;1.00
38938;DHT22;24727;51.974;20.868;2023-07-31T14:38:41;24.90;1.00
38938;DHT22;24727;51.974;20.868;2023-07-31T14:41:08;25.40;1.00
38938;DHT22;24727;51.974;20.868;2023-07-31T14:43:34;25.60;1.00
38938;DHT22;24727;51.974;20.868;2023-07-31T14:46:00;26.10;1.00
38938;DHT22;24727;51.974;20.868;2023-07-31T14:48:27;26.00;1.00
38938;DHT22;24727;51.974;20.868;2023-07-31T14:50:55;25.80;1.00
38938;DHT22;24727;51.974;20.868;2023-07-31T14:53:21;25.60;1.00
38938;DHT22;24727;51.974;20.868;2023-07-31T14:55:47;25.40;1.00
38938;DHT22;24727;51.974;20.868;2023-07-31T14:58:13;25.10;1.00
38938;DHT22;24727;51.974;20.868;2023-07-31T15:00:41;24.80;1.00
38938;DHT22;24727;51.974;20.868;2023-07-31T15:03:07;24.40;1.00
38938;DHT22;24727;51.974;20.868;2023-07-31T15:05:33;24.60;1.00
38938;DHT22;24727;51.974;20.868;2023-07-31T15:07:59;24.70;1.00
38938;DHT22;24727;51.974;20.868;2023-07-31T15:10:25;24.60;1.00
38938;DHT22;24727;51.974;20.868;2023-07-31T15:12:50;24.40;1.00
38938;DHT22;24727;51.974;20.868;2023-07-31T15:15:16;24.90;1.00
38938;DHT22;24727;51.974;20.868;2023-07-31T15:17:42;25.10;1.00
38938;DHT22;24727;51.974;20.868;2023-07-31T15:20:10;25.50;1.00
38938;DHT22;24727;51.974;20.868;2023-07-31T15:22:36;25.90;1.00
38938;DHT22;24727;51.974;20.868;2023-07-31T15:25:02;26.30;1.00
38938;DHT22;24727;51.974;20.868;2023-07-31T15:27:28;26.30;1.00
38938;DHT22;24727;51.974;20.868;2023-07-31T15:29:54;26.10;1.00
38938;DHT22;24727;51.974;20.868;2023-07-31T15:32:21;25.70;1.00
38938;DHT22;24727;51.974;20.868;2023-07-31T15:34:48;25.90;1.00